Latest Weather Observations for Hobart Airport

IDT60901

Issued at 1:05 pm EDT Tuesday 21 October 2014 (issued every 10 minutes, with the page automatically refreshed every 10 minutes)

About weather observations | Map of Hobart area stations | Latest observations for Hobart area | Other Formats
Station Details ID: 094008 Name: HOBART AIRPORT Lat: -42.83 Lon: 147.50 Height: 4.0 m
Data from the previous 72 hours. | See also: Recent months at Hobart Airport
Date/Time
EDT
Tmp

°C
App
Tmp
°C
Dew
Point
°C
Rel
Hum
%
Delta-T

°C
Wind Press
QNH
hPa
Press
MSL
hPa
Rain
since
9 am
mm
Dir
 
Spd
km/h
Gust
km/h
Spd
kts
Gust
kts
21/01:00pm 16.1 13.1 3.9 44 5.6 SSE 9 15 5 8 1031.3 1031.4 0.0
21/12:30pm 17.3 13.4 3.4 39 6.4 ENE 13 19 7 10 1031.6 1031.7 0.0
21/12:00pm 15.8 12.6 2.9 42 5.8 NE 9 17 5 9 1032.1 1032.2 0.0
21/11:30am 15.2 11.7 3.5 45 5.3 NE 11 19 6 10 1032.4 1032.5 0.0
21/11:00am 14.6 11.6 4.1 49 4.8 NNE 9 17 5 9 1033.0 1033.1 0.0
21/10:30am 13.5 9.5 3.1 49 4.6 WNW 13 19 7 10 1033.4 1033.5 0.0
21/10:00am 12.9 8.6 3.1 51 4.3 NW 15 22 8 12 1033.6 1033.7 0.0
21/09:30am 12.5 8.5 2.9 52 4.2 NNW 13 19 7 10 1033.9 1034.0 0.0
21/09:00am 10.3 5.5 2.5 58 3.3 NNW 17 20 9 11 1034.1 1034.2 0.0
21/08:30am 9.5 5.2 3.2 65 2.7 NW 15 19 8 10 1034.2 1034.3 0.0
21/08:00am 7.4 2.3 2.8 72 1.9 NW 19 20 10 11 1034.2 1034.3 0.0
21/07:30am 6.2 1.4 2.5 77 1.5 NW 17 19 9 10 1034.0 1034.1 0.0
21/07:00am 4.6 0.1 2.3 85 0.9 NW 15 17 8 9 1033.9 1034.0 0.0
21/06:30am 4.1 -1.2 2.1 87 0.8 NW 19 20 10 11 1033.8 1033.9 0.0
21/06:00am 3.9 -1.0 1.8 86 0.8 NW 17 19 9 10 1033.7 1033.8 0.0
21/05:30am 3.5 -1.8 2.0 90 0.6 NW 19 20 10 11 1033.5 1033.6 0.0
21/05:00am 4.1 0.4 2.3 88 0.7 NW 11 15 6 8 1033.3 1033.4 0.0
21/04:30am 4.7 0.7 2.7 87 0.8 NW 13 17 7 9 1033.2 1033.3 0.0
21/04:00am 4.6 0.6 2.9 89 0.7 NW 13 15 7 8 1033.4 1033.5 0.0
21/03:30am 4.8 0.1 3.1 89 0.7 NW 17 17 9 9 1033.4 1033.5 0.0
21/03:00am 5.1 1.2 3.4 89 0.7 NW 13 15 7 8 1033.5 1033.6 0.0
21/02:30am 5.5 1.6 3.6 87 0.8 NW 13 15 7 8 1033.9 1034.0 0.0
21/02:00am 6.2 2.3 3.3 82 1.2 NW 13 15 7 8 1033.9 1034.0 0.0
21/01:30am 6.9 4.2 3.8 81 1.3 N 7 9 4 5 1033.9 1034.0 0.0
21/01:00am 7.5 4.3 3.2 74 1.8 N 9 9 5 5 1034.4 1034.5 0.0
21/12:30am 8.6 5.4 3.2 69 2.3 N 9 11 5 6 1034.7 1034.8 0.0
21/12:00am 10.1 6.9 2.8 60 3.1 NE 9 11 5 6 1034.8 1034.9 0.0
 
Date/Time
EDT
Tmp

°C
App
Tmp
°C
Dew
Point
°C
Rel
Hum
%
Delta-T

°C
Wind Press
QNH
hPa
Press
MSL
hPa
Rain
since
9 am
mm
Dir
 
Spd
km/h
Gust
km/h
Spd
kts
Gust
kts
20/11:30pm 10.0 6.9 3.5 64 2.8 E 9 11 5 6 1035.1 1035.2 0.0
20/11:00pm 10.1 7.6 3.6 64 2.8 E 6 7 3 4 1035.7 1035.7 0.0
20/10:30pm 10.1 7.4 3.6 64 2.8 E 7 9 4 5 1035.8 1035.8 0.0
20/10:00pm 10.3 7.7 3.1 61 3.1 ESE 6 9 3 5 1035.9 1035.9 0.0
20/09:30pm 10.3 7.2 3.6 63 2.9 ESE 9 15 5 8 1035.8 1035.8 0.0
20/09:00pm 10.5 6.5 3.0 60 3.2 SE 13 17 7 9 1035.7 1035.7 0.0
20/08:30pm 10.6 6.3 3.4 61 3.2 SSE 15 20 8 11 1035.2 1035.3 0.0
20/08:00pm 10.5 5.2 3.0 60 3.2 SSE 20 26 11 14 1034.7 1034.8 0.0
20/07:30pm 10.5 5.2 3.0 60 3.2 S 20 28 11 15 1034.5 1034.6 0.0
20/07:00pm 10.9 5.1 2.4 55 3.6 S 22 32 12 17 1034.2 1034.3 0.0
20/06:30pm 11.3 5.4 1.8 52 4.0 SSE 22 30 12 16 1034.0 1034.1 0.0
20/06:00pm 11.8 5.5 1.6 49 4.3 SSE 24 32 13 17 1033.7 1033.8 0.0
20/05:30pm 12.4 6.2 2.1 49 4.4 SSE 24 32 13 17 1033.6 1033.7 0.0
20/05:00pm 12.4 5.8 1.8 48 4.5 S 26 32 14 17 1033.5 1033.6 0.0
20/04:30pm 12.8 6.6 2.1 48 4.6 S 24 30 13 16 1033.5 1033.6 0.0
20/04:00pm 12.2 5.7 0.6 45 4.8 SSE 24 28 13 15 1033.5 1033.6 0.0
20/03:30pm 13.2 7.6 1.4 44 5.1 SSE 20 28 11 15 1033.7 1033.8 0.0
20/03:00pm 12.9 7.3 0.0 41 5.3 SSE 19 26 10 14 1033.9 1034.0 0.0
20/02:30pm 13.2 8.0 0.1 40 5.5 SE 17 26 9 14 1033.9 1034.0 0.0
20/02:00pm 12.8 7.3 0.5 43 5.1 ESE 19 26 10 14 1033.9 1034.0 0.0
20/01:30pm 12.7 6.5 0.0 41 5.2 ESE 22 28 12 15 1033.8 1033.9 0.0
20/01:00pm 12.6 6.4 -0.5 40 5.3 SE 22 28 12 15 1033.9 1034.0 0.0
20/12:30pm 12.5 6.8 -1.0 39 5.4 SE 19 28 10 15 1034.1 1034.2 0.0
20/12:00pm 12.5 7.7 -2.6 35 5.8 SSW 13 22 7 12 1034.4 1034.5 0.0
20/11:30am 11.6 5.9 -3.4 35 5.7 S 17 30 9 16 1034.5 1034.6 0.0
20/11:00am 11.6 5.4 -3.0 36 5.5 S 20 30 11 16 1034.4 1034.5 0.0
20/10:30am 11.6 4.6 -3.4 35 5.7 WSW 24 28 13 15 1034.3 1034.4 0.0
20/10:00am 11.0 5.2 -1.3 42 4.8 WSW 19 30 10 16 1034.3 1034.4 0.0
20/09:30am 11.0 4.3 -1.3 42 4.8 S 24 30 13 16 1034.1 1034.2 0.0
20/09:00am 9.9 4.7 -0.2 49 4.0 NW 17 28 9 15 1033.7 1033.8 1.2
20/08:30am 8.7 3.0 -0.6 52 3.6 NW 19 24 10 13 1033.4 1033.5 1.2
20/08:00am 7.5 1.9 -0.3 57 3.0 NNW 19 28 10 15 1033.1 1033.2 1.2
20/07:30am 6.8 1.2 1.5 69 2.1 NW 20 26 11 14 1032.8 1032.9 1.2
20/07:00am 5.4 -0.1 0.7 72 1.8 NW 19 26 10 14 1032.3 1032.4 1.2
20/06:30am 5.0 0.0 1.1 76 1.5 NW 17 22 9 12 1032.0 1032.1 1.2
20/06:00am 5.0 1.1 -1.3 64 2.3 WNW 9 15 5 8 1031.6 1031.7 1.2
20/05:30am 5.9 1.8 -0.2 65 2.3 NW 11 13 6 7 1030.9 1031.0 1.2
20/05:00am 6.9 2.5 -2.1 52 3.3 W 11 13 6 7 1030.7 1030.8 1.2
20/04:30am 7.0 1.9 -1.6 54 3.2 W 15 24 8 13 1030.3 1030.4 1.2
20/04:00am 7.0 1.5 -2.3 51 3.4 WSW 17 26 9 14 1029.8 1029.9 1.2
20/03:30am 6.5 1.1 -1.6 56 3.0 WSW 17 24 9 13 1029.5 1029.6 1.2
20/03:00am 6.2 1.2 -1.4 58 2.8 WSW 15 19 8 10 1029.1 1029.2 1.2
20/02:30am 6.7 1.7 -1.4 56 3.0 W 15 20 8 11 1028.9 1029.0 1.2
20/02:00am 6.6 0.8 -1.2 57 2.9 WSW 19 26 10 14 1028.5 1028.6 1.2
20/01:30am 5.9 0.6 -0.5 63 2.4 W 17 24 9 13 1028.3 1028.4 1.2
20/01:00am 6.3 1.4 -0.6 61 2.6 W 15 22 8 12 1028.1 1028.1 1.2
20/12:30am 6.3 2.2 -0.3 62 2.5 W 11 17 6 9 1028.0 1028.0 1.2
20/12:00am 7.1 2.7 0.1 61 2.7 SW 13 19 7 10 1027.3 1027.3 1.2
 
Date/Time
EDT
Tmp

°C
App
Tmp
°C
Dew
Point
°C
Rel
Hum
%
Delta-T

°C
Wind Press
QNH
hPa
Press
MSL
hPa
Rain
since
9 am
mm
Dir
 
Spd
km/h
Gust
km/h
Spd
kts
Gust
kts
19/11:30pm 7.9 2.7 0.3 58 3.0 SW 17 24 9 13 1027.0 1027.0 1.2
19/11:00pm 8.1 1.5 -0.7 54 3.4 SW 24 35 13 19 1026.4 1026.4 1.2
19/10:30pm 7.9 2.3 0.9 61 2.8 SW 20 32 11 17 1025.6 1025.6 1.2
19/10:00pm 8.5 1.8 1.4 61 2.9 SW 26 35 14 19 1025.0 1025.0 1.2
19/09:30pm 8.7 2.1 1.9 62 2.8 SW 26 43 14 23 1024.5 1024.5 1.2
19/09:00pm 8.5 2.9 3.3 70 2.2 SW 22 32 12 17 1024.0 1024.0 1.2
19/08:30pm 8.8 4.4 5.0 77 1.7 SSW 17 26 9 14 1023.3 1023.3 0.6
19/08:00pm 9.7 5.3 4.5 70 2.3 SSW 17 24 9 13 1022.1 1022.1 0.4
19/07:30pm 9.8 4.1 4.9 71 2.2 SSW 24 35 13 19 1021.2 1021.2 0.4
19/07:00pm 10.1 3.7 5.0 70 2.3 SW 28 37 15 20 1020.0 1020.0 0.4
19/06:30pm 11.2 7.7 5.3 67 2.7 SW 13 15 7 8 1019.1 1019.1 0.0
19/06:00pm 11.2 7.4 5.8 69 2.5 S 15 19 8 10 1018.0 1018.0 0.0
19/05:30pm 11.3 9.3 6.4 72 2.3 W 6 9 3 5 1018.1 1018.1 0.0
19/05:00pm 11.1 7.0 6.2 72 2.3 W 17 26 9 14 1018.2 1018.2 0.0
19/04:30pm 10.9 5.4 5.9 71 2.3 SW 24 33 13 18 1017.5 1017.5 0.0
19/04:15pm 10.8 4.3 6.3 74 2.1 SW 30 48 16 26 1017.0 1017.0 0.0
19/04:00pm 11.4 4.4 6.0 69 2.5 SW 32 41 17 22 1016.7 1016.7 0.0
19/03:30pm 13.2 8.9 7.0 66 3.0 S 19 28 10 15 1016.5 1016.5 0.0
19/03:00pm 15.6 10.6 4.5 47 5.2 W 20 30 11 16 1016.3 1016.3 0.0
19/02:30pm 16.3 9.9 3.2 41 6.0 W 26 33 14 18 1016.4 1016.4 0.0
19/02:00pm 16.0 10.8 5.6 50 5.0 SW 22 32 12 17 1015.6 1015.6 0.0
19/01:30pm 16.6 10.8 6.1 50 5.1 SSW 26 33 14 18 1015.5 1015.5 0.0
19/01:00pm 16.7 11.3 6.3 50 5.1 SW 24 35 13 19 1015.5 1015.5 0.0
19/12:30pm 18.9 13.3 3.6 36 7.2 WNW 22 35 12 19 1015.4 1015.4 0.0
19/12:00pm 18.6 13.5 4.3 38 6.8 WSW 20 28 11 15 1015.2 1015.2 0.0
19/11:30am 18.8 12.7 4.6 39 6.8 W 26 33 14 18 1015.3 1015.3 0.0
19/11:00am 18.7 13.0 4.8 40 6.7 W 24 32 13 17 1015.3 1015.3 0.0
19/10:30am 19.3 12.7 4.2 37 7.2 WSW 28 33 15 18 1015.3 1015.3 0.0
19/10:00am 18.2 13.4 5.4 43 6.2 W 20 30 11 16 1015.1 1015.1 0.0
19/09:30am 19.0 14.3 6.1 43 6.4 WNW 20 30 11 16 1015.0 1015.0 0.0
19/09:00am 18.3 13.8 5.9 44 6.1 W 19 24 10 13 1014.5 1014.5 0.0
19/08:30am 17.3 13.7 6.8 50 5.2 NW 15 24 8 13 1014.3 1014.3 0.0
19/08:00am 17.3 13.3 6.6 49 5.3 WNW 17 26 9 14 1014.3 1014.3 0.0
19/07:30am 17.0 12.9 6.2 49 5.3 WNW 17 22 9 12 1014.1 1014.1 0.0
19/07:00am 14.0 11.0 6.0 58 3.8 NNW 11 17 6 9 1013.8 1013.8 0.0
19/06:30am 12.9 10.6 5.7 61 3.4 NW 7 11 4 6 1013.1 1013.1 0.0
19/06:00am 13.9 11.1 5.1 55 4.1 WNW 9 15 5 8 1012.5 1012.5 0.0
19/05:30am 13.8 11.3 6.5 61 3.5 NNW 9 13 5 7 1012.2 1012.2 0.0
19/05:00am 16.4 12.7 4.5 45 5.6 N 13 19 7 10 1011.9 1011.9 0.0
19/04:30am 16.9 13.1 4.1 42 6.0 N 13 19 7 10 1012.3 1012.3 0.0
19/04:00am 15.8 11.1 5.3 49 5.0 N 19 28 10 15 1012.6 1012.6 0.0
19/03:30am 16.6 11.5 3.9 42 5.9 N 20 30 11 16 1013.0 1013.0 0.0
19/03:00am 16.4 11.0 2.7 40 6.2 N 20 28 11 15 1013.4 1013.4 0.0
19/02:30am 14.9 11.2 4.6 50 4.8 N 13 19 7 10 1014.0 1014.0 0.0
19/02:00am 14.4 10.4 4.7 52 4.5 N 15 19 8 10 1014.4 1014.4 0.0
19/01:30am 14.5 10.1 4.6 51 4.6 N 17 24 9 13 1014.8 1014.8 0.0
19/01:00am 14.6 8.5 4.7 51 4.6 NNW 26 37 14 20 1015.2 1015.2 0.0
19/12:30am 14.4 8.0 5.3 54 4.3 NNW 28 41 15 22 1015.1 1015.1 0.0
19/12:00am 14.7 8.3 5.1 52 4.5 N 28 35 15 19 1015.2 1015.2 0.0
 
Date/Time
EDT
Tmp

°C
App
Tmp
°C
Dew
Point
°C
Rel
Hum
%
Delta-T

°C
Wind Press
QNH
hPa
Press
MSL
hPa
Rain
since
9 am
mm
Dir
 
Spd
km/h
Gust
km/h
Spd
kts
Gust
kts
18/11:30pm 14.3 8.4 5.9 57 4.0 N 26 35 14 19 1015.5 1015.5 0.0
18/11:13pm 14.5 8.2 5.9 56 4.1 N 28 46 15 25 1015.8 1015.8 0.0
18/11:00pm 14.4 8.6 6.3 58 3.9 N 26 37 14 20 1015.9 1015.9 0.0
18/10:30pm 14.5 7.5 5.9 56 4.1 N 32 48 17 26 1015.9 1015.9 0.0
18/10:00pm 14.8 8.5 5.5 53 4.4 N 28 37 15 20 1016.8 1016.8 0.0
18/09:30pm 15.4 9.4 5.5 51 4.7 NNE 26 37 14 20 1017.6 1017.6 0.0
18/09:00pm 15.1 11.0 6.2 55 4.3 N 17 28 9 15 1017.3 1017.3 0.0
18/08:30pm 16.4 12.8 5.0 47 5.4 N 13 20 7 11 1016.9 1016.9 0.0
18/08:00pm 17.0 11.7 5.1 45 5.7 N 22 33 12 18 1017.3 1017.3 0.0
18/07:30pm 17.8 12.4 4.5 41 6.3 N 22 35 12 19 1017.5 1017.5 0.0
18/07:00pm 17.8 14.2 5.1 43 6.1 N 13 20 7 11 1018.0 1018.0 0.0
18/06:30pm 17.8 12.8 4.8 42 6.2 N 20 32 11 17 1018.4 1018.4 0.0
18/06:00pm 18.0 12.7 4.8 41 6.3 N 22 32 12 17 1018.6 1018.6 0.0
18/05:30pm 19.0 13.7 4.9 39 6.8 N 22 32 12 17 1018.4 1018.4 0.0
18/05:00pm 19.2 14.0 5.5 40 6.7 N 22 30 12 16 1018.1 1018.1 0.0
18/04:30pm 19.6 13.8 6.1 41 6.7 N 26 37 14 20 1018.3 1018.3 0.0
18/04:16pm 19.9 13.7 6.3 41 6.8 N 28 46 15 25 1018.2 1018.2 0.0
18/04:00pm 20.3 14.4 5.8 38 7.2 N 26 37 14 20 1018.2 1018.2 0.0
18/03:30pm 21.5 15.2 5.9 36 7.8 N 28 43 15 23 1018.5 1018.5 0.0
18/03:00pm 21.7 16.1 5.4 34 8.1 N 24 32 13 17 1019.0 1019.0 0.0
18/02:30pm 19.9 13.9 5.1 38 7.2 N 26 35 14 19 1019.3 1019.3 0.0
18/02:00pm 21.0 14.6 5.4 36 7.7 N 28 37 15 20 1020.0 1020.0 0.0
18/01:30pm 19.2 12.6 4.0 36 7.2 N 28 37 15 20 1020.0 1020.0 0.0

Latest Capital City Observations: Canberra | Sydney | Melbourne | Brisbane | Adelaide | Perth | Hobart | Darwin

Other Formats:

Comma delimited format used in spreadsheet applications
http://www.bom.gov.au/fwo/IDT60901/IDT60901.94975.axf

JavaScript Object Notation format (JSON) in row-major order
http://www.bom.gov.au/fwo/IDT60901/IDT60901.94975.json